Time;durP1;ratioP1;P1;durP2;ratioP2;P2;SDS_P1;SDS_P2;PMS_P1;PMS_P2;Temp;Humidity;BMP_temperature;BMP_pressure;BME280_temperature;BME280_humidity;BME280_pressure;Samples;Min_cycle;Max_cycle;Signal;HPM_P1;HPM_P2
2023/05/28 00:00:19;;;;;;;11.18;5.45;;;;;;;17.93;62.86;95077.91;5070220;28;20043;-77
2023/05/28 00:02:44;;;;;;;10.02;5.93;;;;;;;18.31;62.92;95128.88;5073164;28;20457;-77
2023/05/28 00:05:10;;;;;;;12.10;5.32;;;;;;;18.33;63.04;95150.03;5073575;28;20033;-77
2023/05/28 00:07:35;;;;;;;11.10;5.60;;;;;;;18.42;62.84;95143.53;5075198;28;20020;-77
2023/05/28 00:10:01;;;;;;;10.45;5.63;;;;;;;18.15;63.29;95106.41;5072966;28;20058;-76
2023/05/28 00:12:26;;;;;;;10.30;5.90;;;;;;;18.18;65.01;95121.06;5073741;28;20060;-77
2023/05/28 00:14:52;;;;;;;7.18;5.72;;;;;;;18.04;66.17;95121.28;5075012;28;20090;-77
2023/05/28 00:17:17;;;;;;;12.38;6.13;;;;;;;18.01;67.19;95129.97;5072788;28;20511;-77
2023/05/28 00:19:44;;;;;;;9.75;6.30;;;;;;;17.83;68.77;95153.38;5074559;28;20048;-77
2023/05/28 00:22:10;;;;;;;7.65;6.28;;;;;;;17.64;69.15;95134.16;5075353;28;20028;-77
2023/05/28 00:24:35;;;;;;;11.65;6.55;;;;;;;17.64;69.36;95129.59;5071964;28;20487;-77
2023/05/28 00:27:02;;;;;;;7.07;5.65;;;;;;;17.44;69.17;95134.81;5072847;28;20458;-76
2023/05/28 00:29:31;;;;;;;15.77;6.88;;;;;;;17.53;70.00;95112.25;5072466;28;20026;-77
2023/05/28 00:31:56;;;;;;;13.07;6.93;;;;;;;17.60;69.46;95135.91;5072633;28;20097;-77
2023/05/28 00:34:22;;;;;;;12.82;7.22;;;;;;;17.74;69.86;95125.78;5072981;28;20041;-77
2023/05/28 00:36:48;;;;;;;11.75;7.20;;;;;;;17.39;69.15;95097.44;5073503;28;20043;-77
2023/05/28 00:39:17;;;;;;;11.25;6.38;;;;;;;16.87;71.34;95089.41;5054467;28;20104;-77
2023/05/28 00:41:43;;;;;;;13.73;6.78;;;;;;;16.71;72.45;95094.44;5073320;28;20036;-76
2023/05/28 00:44:08;;;;;;;15.23;6.93;;;;;;;16.35;73.95;95104.59;5072434;28;20033;-76
2023/05/28 00:46:35;;;;;;;12.52;7.30;;;;;;;16.47;75.12;95120.84;5074550;28;20059;-77
2023/05/28 00:49:01;;;;;;;13.18;6.30;;;;;;;16.82;73.50;95125.19;5071527;28;20037;-76
2023/05/28 00:51:28;;;;;;;14.23;7.20;;;;;;;16.71;74.13;95129.25;5066456;28;20036;-77
2023/05/28 00:53:54;;;;;;;11.68;6.35;;;;;;;16.43;74.35;95120.69;5061697;28;20041;-77
2023/05/28 00:56:19;;;;;;;13.80;7.18;;;;;;;15.71;76.86;95086.28;5074087;28;20044;-76
2023/05/28 00:58:48;;;;;;;11.73;7.15;;;;;;;16.04;77.52;95124.16;5063497;28;20053;-76
2023/05/28 01:01:13;;;;;;;12.60;7.35;;;;;;;15.56;77.14;95091.25;5067082;28;20068;-76
2023/05/28 01:03:39;;;;;;;10.00;6.82;;;;;;;15.86;77.73;95111.84;5072897;28;20487;-76
2023/05/28 01:06:11;;;;;;;10.40;6.57;;;;;;;15.91;77.41;95102.88;5072068;28;20032;-77
2023/05/28 01:08:38;;;;;;;11.75;7.40;;;;;;;15.93;76.88;95119.41;5058473;28;20049;-76
2023/05/28 01:11:24;;;;;;;9.68;7.22;;;;;;;15.94;77.22;95097.72;5071729;28;20040;-77
2023/05/28 01:13:50;;;;;;;12.77;6.38;;;;;;;15.44;77.94;95081.84;5060494;28;20044;-77
2023/05/28 01:16:16;;;;;;;12.45;6.55;;;;;;;15.67;78.93;95098.69;5059546;28;20032;-76
2023/05/28 01:18:44;;;;;;;10.23;6.70;;;;;;;15.75;79.25;95089.13;5062917;28;20119;-76
2023/05/28 01:21:10;;;;;;;8.85;6.32;;;;;;;15.67;78.28;95079.97;5069805;28;20063;-77
2023/05/28 01:23:45;;;;;;;14.32;7.13;;;;;;;16.01;77.91;95106.06;5066175;28;20059;-77
2023/05/28 01:26:17;;;;;;;10.75;6.43;;;;;;;15.96;76.46;95087.47;5072527;28;20068;-76
2023/05/28 01:28:48;;;;;;;8.60;6.70;;;;;;;16.01;76.42;95097.25;5073147;28;20082;-76
2023/05/28 01:31:14;;;;;;;8.90;6.63;;;;;;;15.83;76.11;95099.06;5073615;28;20036;-77
2023/05/28 01:33:41;;;;;;;8.98;6.03;;;;;;;15.36;76.32;95009.66;5059300;28;20102;-76
2023/05/28 01:36:14;;;;;;;9.95;5.97;;;;;;;15.97;76.21;95101.63;5070741;28;20024;-76
2023/05/28 01:38:43;;;;;;;7.60;6.25;;;;;;;15.69;77.16;95058.28;5069692;28;20033;-77
2023/05/28 01:41:09;;;;;;;12.00;5.95;;;;;;;16.07;76.23;95101.38;5056705;28;20393;-78
2023/05/28 01:43:35;;;;;;;8.55;5.97;;;;;;;16.36;76.07;95100.81;5068783;28;20028;-79
2023/05/28 01:46:01;;;;;;;7.20;5.40;;;;;;;16.13;74.83;95086.75;5067150;28;20519;-78
2023/05/28 01:48:27;;;;;;;6.10;4.75;;;;;;;15.92;73.88;95067.00;5069453;28;20029;-76
2023/05/28 01:50:54;;;;;;;9.13;4.90;;;;;;;15.82;75.16;95084.13;5060019;28;20526;-76
2023/05/28 01:53:19;;;;;;;9.82;5.13;;;;;;;15.58;75.50;95052.41;5068731;28;20051;-76
2023/05/28 01:55:44;;;;;;;9.75;5.78;;;;;;;15.73;75.91;95070.72;5066841;28;20032;-76
2023/05/28 01:58:10;;;;;;;9.13;5.38;;;;;;;15.78;76.18;95051.88;5068729;28;20041;-76
2023/05/28 02:00:43;;;;;;;6.20;4.70;;;;;;;16.16;75.70;95092.28;5070792;28;20088;-76
2023/05/28 02:03:11;;;;;;;6.95;5.72;;;;;;;15.81;75.92;95051.25;5064822;28;20055;-77
2023/05/28 02:05:37;;;;;;;7.97;5.82;;;;;;;16.05;75.98;95069.56;5055489;28;20120;-76
2023/05/28 02:08:02;;;;;;;7.07;5.30;;;;;;;16.16;74.67;95054.81;5069710;28;20036;-76
2023/05/28 02:10:28;;;;;;;6.05;5.10;;;;;;;16.11;74.71;95038.91;5061573;28;20093;-76
2023/05/28 02:12:53;;;;;;;7.90;5.43;;;;;;;16.32;74.29;95068.56;5075948;28;20036;-77
2023/05/28 02:15:21;;;;;;;7.70;5.68;;;;;;;16.35;74.30;95059.88;5076328;28;20032;-77
2023/05/28 02:17:47;;;;;;;8.90;5.45;;;;;;;16.38;73.78;95069.19;5059452;28;20024;-77
2023/05/28 02:20:12;;;;;;;13.80;5.68;;;;;;;16.37;74.08;95057.69;5075824;28;20505;-77
2023/05/28 02:22:38;;;;;;;9.88;5.88;;;;;;;16.50;73.60;95061.31;5075424;28;20130;-77
2023/05/28 02:25:04;;;;;;;10.13;5.63;;;;;;;16.61;73.29;95094.78;5076533;28;20060;-77
2023/05/28 02:27:30;;;;;;;8.93;5.22;;;;;;;16.64;72.43;95107.50;5076511;28;20033;-77
2023/05/28 02:29:55;;;;;;;6.30;5.40;;;;;;;16.55;72.49;95088.72;5074759;28;20131;-77
2023/05/28 02:32:21;;;;;;;12.20;5.07;;;;;;;16.45;72.06;95085.56;5075186;28;20111;-77
2023/05/28 02:34:46;;;;;;;9.57;4.80;;;;;;;16.30;72.96;95102.88;5076010;28;20031;-77
2023/05/28 02:37:12;;;;;;;9.40;5.18;;;;;;;16.36;72.63;95084.75;5063319;28;20060;-77
2023/05/28 02:39:37;;;;;;;6.43;4.97;;;;;;;16.15;72.19;95047.09;5069665;28;20106;-77
2023/05/28 02:42:03;;;;;;;7.85;5.20;;;;;;;16.01;74.20;95099.94;5075114;28;20070;-77
2023/05/28 02:44:28;;;;;;;6.63;5.25;;;;;;;16.32;73.46;95095.31;5075837;28;20038;-77
2023/05/28 02:46:54;;;;;;;9.18;4.88;;;;;;;16.24;73.04;95071.22;5059142;28;20071;-77
2023/05/28 02:49:19;;;;;;;9.02;5.68;;;;;;;16.26;73.25;95095.75;5073174;28;20071;-77
2023/05/28 02:51:45;;;;;;;6.10;4.85;;;;;;;16.20;72.91;95065.69;5074567;28;20044;-77
2023/05/28 02:54:10;;;;;;;15.00;5.82;;;;;;;16.37;72.36;95070.28;5074407;28;20491;-77
2023/05/28 02:56:35;;;;;;;9.77;5.18;;;;;;;16.54;72.27;95081.03;5075525;28;20029;-77
2023/05/28 02:59:01;;;;;;;7.90;5.20;;;;;;;16.78;72.63;95105.47;5074045;28;20051;-77
2023/05/28 03:01:26;;;;;;;6.82;5.10;;;;;;;16.75;71.30;95105.34;5074718;28;20037;-77
2023/05/28 03:03:52;;;;;;;9.52;5.32;;;;;;;16.59;71.70;95070.94;5075632;28;20554;-77
2023/05/28 03:06:17;;;;;;;7.57;5.15;;;;;;;16.71;71.15;95107.03;5073461;28;20046;-77
2023/05/28 03:08:43;;;;;;;5.78;5.18;;;;;;;16.71;71.24;95099.81;5073710;28;20639;-77
2023/05/28 03:11:08;;;;;;;7.32;5.68;;;;;;;16.67;70.65;95103.44;5075506;28;20033;-77
2023/05/28 03:13:33;;;;;;;7.32;4.93;;;;;;;16.48;71.45;95071.56;5076109;28;20108;-77
2023/05/28 03:15:59;;;;;;;7.93;5.63;;;;;;;16.09;71.46;95043.78;5075795;28;20036;-77
2023/05/28 03:18:24;;;;;;;9.48;5.20;;;;;;;15.75;73.01;95063.16;5075508;28;20070;-77
2023/05/28 03:20:50;;;;;;;8.48;5.90;;;;;;;15.71;73.80;95067.56;5059902;28;20054;-77
2023/05/28 03:23:16;;;;;;;10.55;5.70;;;;;;;16.40;73.96;95107.91;5071018;28;20041;-77
2023/05/28 03:25:41;;;;;;;10.85;5.53;;;;;;;15.83;73.38;95034.88;5075491;28;20056;-77
2023/05/28 03:28:07;;;;;;;9.25;5.50;;;;;;;16.32;72.80;95065.09;5075468;28;20059;-77
2023/05/28 03:30:32;;;;;;;5.88;5.00;;;;;;;16.52;72.32;95099.28;5073196;28;20210;-77
2023/05/28 03:32:57;;;;;;;10.50;5.47;;;;;;;16.79;72.29;95103.59;5057360;28;20024;-77
2023/05/28 03:35:23;;;;;;;9.05;5.88;;;;;;;16.64;71.42;95064.69;5074299;28;20035;-77
2023/05/28 03:37:48;;;;;;;8.60;5.32;;;;;;;16.63;71.47;95073.81;5070428;28;20036;-77
2023/05/28 03:40:14;;;;;;;6.93;4.53;;;;;;;16.98;70.43;95098.72;5073522;28;20035;-77
2023/05/28 03:42:40;;;;;;;8.65;5.03;;;;;;;16.75;71.46;95106.13;5067502;28;20025;-77
2023/05/28 03:45:06;;;;;;;9.88;5.85;;;;;;;16.64;72.06;95088.78;5065888;28;20068;-77
2023/05/28 03:47:32;;;;;;;7.88;5.32;;;;;;;16.86;71.56;95104.69;5073801;28;20066;-77
2023/05/28 03:49:58;;;;;;;9.10;5.35;;;;;;;16.86;70.36;95103.94;5074943;28;20028;-77
2023/05/28 03:52:25;;;;;;;10.27;5.78;;;;;;;16.90;70.24;95070.06;5075558;28;20027;-77
2023/05/28 03:54:50;;;;;;;9.38;6.07;;;;;;;17.14;69.76;95088.31;5073994;28;20029;-77
2023/05/28 03:57:15;;;;;;;9.88;5.88;;;;;;;17.20;69.92;95077.13;5073404;28;20495;-77
2023/05/28 03:59:41;;;;;;;11.75;5.50;;;;;;;17.35;69.26;95095.41;5075005;28;20040;-77
2023/05/28 04:02:06;;;;;;;11.93;5.95;;;;;;;17.47;69.22;95089.38;5074250;28;20037;-77
2023/05/28 04:04:32;;;;;;;10.45;5.70;;;;;;;17.37;68.88;95084.34;5073579;28;20510;-77
2023/05/28 04:06:57;;;;;;;10.73;5.30;;;;;;;16.95;69.52;95084.06;5071921;28;20036;-77
2023/05/28 04:09:23;;;;;;;8.13;5.25;;;;;;;16.65;69.97;95038.69;5054482;28;20482;-77
2023/05/28 04:11:48;;;;;;;9.18;5.72;;;;;;;17.26;70.00;95109.91;5072475;28;20118;-77
2023/05/28 04:14:14;;;;;;;15.80;5.55;;;;;;;17.26;69.04;95099.19;5072691;28;20036;-77
2023/05/28 04:16:39;;;;;;;7.93;5.53;;;;;;;17.39;69.04;95103.59;5068250;28;20037;-77
2023/05/28 04:19:05;;;;;;;7.63;5.25;;;;;;;17.19;68.76;95080.13;5059361;28;20035;-77
2023/05/28 04:21:31;;;;;;;11.60;5.68;;;;;;;17.54;68.42;95121.09;5073007;28;20511;-77
2023/05/28 04:23:57;;;;;;;13.05;5.22;;;;;;;17.41;68.68;95098.69;5065532;28;20040;-77
2023/05/28 04:26:23;;;;;;;6.40;5.20;;;;;;;17.49;68.71;95099.78;5052753;28;20118;-77
2023/05/28 04:28:50;;;;;;;8.45;5.57;;;;;;;17.67;68.56;95120.91;5066570;28;20036;-76
2023/05/28 04:31:16;;;;;;;8.38;6.20;;;;;;;17.65;68.57;95100.88;5060750;28;20032;-76
2023/05/28 04:33:41;;;;;;;8.88;5.75;;;;;;;17.61;68.46;95107.97;5067615;28;20040;-77
2023/05/28 04:36:13;;;;;;;13.98;6.53;;;;;;;17.70;68.71;95104.16;5058165;28;20025;-78
2023/05/28 04:38:39;;;;;;;11.52;4.95;;;;;;;17.83;68.82;95117.72;5069373;28;20028;-77
2023/05/28 04:41:05;;;;;;;11.38;6.18;;;;;;;17.76;68.78;95102.13;5074008;28;20032;-77
2023/05/28 04:43:30;;;;;;;14.98;5.85;;;;;;;17.92;68.47;95124.66;5072076;28;20043;-77
2023/05/28 04:45:58;;;;;;;9.68;5.30;;;;;;;17.72;68.57;95082.41;5072048;28;20462;-77
2023/05/28 04:48:25;;;;;;;13.43;5.82;;;;;;;17.96;68.46;95117.50;5070998;28;20031;-78
2023/05/28 04:50:51;;;;;;;11.88;6.22;;;;;;;17.84;68.08;95109.38;5056782;28;20617;-77
2023/05/28 04:53:17;;;;;;;18.70;7.10;;;;;;;17.83;68.48;95112.34;5071925;28;20528;-77
2023/05/28 04:55:44;;;;;;;7.68;5.25;;;;;;;17.74;68.31;95112.38;5072769;28;20131;-77
2023/05/28 04:58:09;;;;;;;10.60;6.53;;;;;;;17.93;68.19;95136.94;5072798;28;20107;-77
2023/05/28 05:00:35;;;;;;;18.38;5.72;;;;;;;17.88;68.75;95115.66;5072824;28;20511;-77
2023/05/28 05:03:01;;;;;;;10.15;6.10;;;;;;;17.82;68.65;95100.06;5066168;28;20032;-78
2023/05/28 05:05:27;;;;;;;11.73;6.07;;;;;;;17.89;68.50;95098.44;5065339;28;20032;-77
2023/05/28 05:07:52;;;;;;;9.88;5.72;;;;;;;17.39;68.34;95028.53;5072372;28;20033;-78
2023/05/28 05:10:18;;;;;;;13.80;6.22;;;;;;;18.05;68.41;95126.34;5061232;28;20132;-77
2023/05/28 05:12:43;;;;;;;11.40;5.68;;;;;;;17.83;68.70;95091.69;5069228;28;20133;-78
2023/05/28 05:15:08;;;;;;;11.38;6.30;;;;;;;18.03;68.50;95111.66;5058841;28;20078;-77
2023/05/28 05:17:34;;;;;;;11.05;6.22;;;;;;;17.96;68.86;95098.75;5070592;28;20064;-77
2023/05/28 05:20:01;;;;;;;13.55;6.53;;;;;;;18.18;68.19;95121.84;5058363;28;20028;-77
2023/05/28 05:22:26;;;;;;;10.02;6.22;;;;;;;18.02;68.00;95094.75;5071668;28;20039;-78
2023/05/28 05:24:52;;;;;;;8.75;6.30;;;;;;;17.71;67.88;95040.59;5071273;28;20037;-77
2023/05/28 05:27:17;;;;;;;13.73;6.13;;;;;;;18.27;67.17;95122.59;5071104;28;20082;-77
2023/05/28 05:29:43;;;;;;;10.60;6.40;;;;;;;18.26;66.26;95110.28;5071783;28;20028;-78
2023/05/28 05:32:11;;;;;;;8.55;5.97;;;;;;;18.37;66.17;95122.25;5072468;28;20119;-78
2023/05/28 05:34:37;;;;;;;10.05;6.20;;;;;;;18.31;66.51;95120.06;5073122;28;20101;-78
2023/05/28 05:37:03;;;;;;;14.15;6.55;;;;;;;18.35;66.32;95108.34;5072119;28;20028;-77
2023/05/28 05:39:29;;;;;;;7.70;6.10;;;;;;;18.35;66.63;95086.09;5065999;28;20058;-78
2023/05/28 05:41:54;;;;;;;11.20;6.32;;;;;;;18.34;66.47;95074.56;5065700;28;20051;-77
2023/05/28 05:44:20;;;;;;;8.18;6.03;;;;;;;18.58;66.16;95116.16;5073071;28;20036;-78
2023/05/28 05:46:46;;;;;;;7.75;6.15;;;;;;;18.56;65.46;95096.84;5073302;28;20040;-77
2023/05/28 05:49:11;;;;;;;14.00;6.72;;;;;;;18.34;65.98;95074.56;5071980;28;20120;-77
2023/05/28 05:51:37;;;;;;;18.40;6.93;;;;;;;18.60;65.99;95095.13;5071702;28;20127;-77
2023/05/28 05:54:03;;;;;;;8.10;6.22;;;;;;;18.83;65.45;95118.69;5073579;28;20529;-78
2023/05/28 05:56:29;;;;;;;18.38;7.10;;;;;;;18.68;65.52;95087.03;5071751;28;20025;-78
2023/05/28 05:58:55;;;;;;;12.38;7.22;;;;;;;18.93;65.02;95122.88;5073252;28;20032;-78
2023/05/28 06:01:21;;;;;;;18.67;7.72;;;;;;;18.90;64.55;95110.09;5073555;28;20139;-78
2023/05/28 06:03:47;;;;;;;14.82;6.95;;;;;;;18.83;64.53;95093.72;5071671;28;20091;-78
2023/05/28 06:06:13;;;;;;;10.93;6.38;;;;;;;19.01;63.77;95124.72;5070886;28;20060;-77
2023/05/28 06:08:39;;;;;;;11.55;6.72;;;;;;;18.97;64.11;95106.91;5069622;28;20063;-78
2023/05/28 06:11:04;;;;;;;11.32;6.30;;;;;;;18.93;65.42;95109.44;5054717;28;20042;-78
2023/05/28 06:13:30;;;;;;;10.20;5.93;;;;;;;18.75;65.00;95137.56;5058841;28;20028;-77
2023/05/28 06:15:55;;;;;;;12.65;6.00;;;;;;;18.77;65.12;95103.84;5064835;28;20032;-77
2023/05/28 06:18:21;;;;;;;16.60;6.63;;;;;;;18.82;64.81;95127.06;5060646;28;20384;-77
2023/05/28 06:20:49;;;;;;;9.88;6.90;;;;;;;19.09;64.69;95134.63;5071425;28;20044;-77
2023/05/28 06:23:15;;;;;;;9.75;6.32;;;;;;;18.82;64.93;95090.25;5071921;28;20101;-77
2023/05/28 06:25:40;;;;;;;10.50;7.50;;;;;;;19.00;65.24;95114.28;5070341;28;20049;-77
2023/05/28 06:28:06;;;;;;;13.80;6.70;;;;;;;19.13;66.32;95135.53;5071123;28;20067;-77
2023/05/28 06:30:32;;;;;;;10.00;6.13;;;;;;;18.81;66.33;95138.94;5073475;28;20392;-78
2023/05/28 06:32:57;;;;;;;10.48;6.30;;;;;;;18.49;66.88;95084.75;5073971;28;20029;-78
2023/05/28 06:35:22;;;;;;;16.42;7.28;;;;;;;18.70;67.50;95116.22;5074114;28;20032;-77
2023/05/28 06:37:48;;;;;;;11.18;7.93;;;;;;;18.70;68.00;95118.91;5073337;28;20044;-78
2023/05/28 06:40:14;;;;;;;14.88;8.50;;;;;;;18.69;68.52;95123.50;5074627;28;20036;-78
2023/05/28 06:42:39;;;;;;;13.15;7.97;;;;;;;18.12;68.89;95034.59;5077669;28;20116;-77
2023/05/28 06:45:06;;;;;;;13.88;8.95;;;;;;;18.70;69.61;95129.66;5076809;28;20025;-78
2023/05/28 06:47:31;;;;;;;11.52;7.55;;;;;;;18.70;70.31;95127.75;5075785;28;20028;-78
2023/05/28 06:49:57;;;;;;;13.60;7.95;;;;;;;18.63;70.88;95130.19;5076001;28;20031;-77
2023/05/28 06:52:23;;;;;;;9.85;7.68;;;;;;;18.40;71.65;95097.41;5074934;28;20115;-78
2023/05/28 06:54:48;;;;;;;14.90;8.80;;;;;;;18.50;71.66;95109.69;5074521;28;20045;-77
2023/05/28 06:57:14;;;;;;;14.55;8.38;;;;;;;18.26;70.39;95106.81;5075343;28;20581;-77
2023/05/28 06:59:39;;;;;;;11.05;8.25;;;;;;;18.49;70.73;95146.50;5075332;28;20121;-77
2023/05/28 07:02:05;;;;;;;13.43;8.15;;;;;;;18.24;72.10;95109.81;5073769;28;20024;-77
2023/05/28 07:04:30;;;;;;;14.43;8.85;;;;;;;18.31;70.84;95112.03;5062045;28;20131;-77
2023/05/28 07:06:56;;;;;;;18.17;8.85;;;;;;;18.37;70.05;95124.94;5054701;28;20033;-77
2023/05/28 07:09:21;;;;;;;12.15;7.88;;;;;;;18.22;68.54;95098.63;5068888;28;20495;-77
2023/05/28 07:11:47;;;;;;;15.20;8.20;;;;;;;18.27;69.77;95117.22;5059164;28;20044;-77
2023/05/28 07:14:12;;;;;;;12.40;8.57;;;;;;;18.33;70.99;95089.09;5071029;28;20037;-77
2023/05/28 07:16:37;;;;;;;15.30;8.95;;;;;;;18.55;70.08;95119.44;5074352;28;20037;-77
2023/05/28 07:19:03;;;;;;;13.20;9.82;;;;;;;18.92;71.02;95139.34;5056109;28;20111;-77
2023/05/28 07:21:28;;;;;;;21.08;8.80;;;;;;;18.87;70.11;95140.31;5073094;28;20025;-77
2023/05/28 07:23:54;;;;;;;11.10;6.53;;;;;;;18.93;68.73;95144.38;5073884;28;20029;-77
2023/05/28 07:26:20;;;;;;;11.90;7.68;;;;;;;18.97;71.05;95128.38;5073470;28;20392;-77
2023/05/28 07:28:45;;;;;;;11.55;7.00;;;;;;;19.30;69.96;95144.59;5073797;28;20123;-77
2023/05/28 07:31:10;;;;;;;10.00;5.97;;;;;;;19.14;69.31;95118.31;5072608;28;20035;-77
2023/05/28 07:33:36;;;;;;;9.00;5.50;;;;;;;19.38;68.81;95143.72;5074719;28;20174;-77
2023/05/28 07:36:02;;;;;;;10.40;4.93;;;;;;;19.31;67.77;95132.69;5074444;28;20029;-77
2023/05/28 07:38:27;;;;;;;15.57;5.78;;;;;;;19.22;67.10;95084.41;5065331;28;20472;-77
2023/05/28 07:40:53;;;;;;;14.88;5.68;;;;;;;19.16;67.07;95132.19;5064075;28;20105;-77
2023/05/28 07:43:18;;;;;;;10.45;5.22;;;;;;;18.98;67.06;95089.66;5073056;28;20066;-77
2023/05/28 07:45:44;;;;;;;11.93;4.85;;;;;;;19.35;67.55;95112.13;5072713;28;20038;-77
2023/05/28 07:48:09;;;;;;;11.20;4.45;;;;;;;19.54;67.11;95112.44;5072688;28;20130;-77
2023/05/28 07:50:34;;;;;;;6.10;3.65;;;;;;;19.36;65.26;95117.16;5072362;28;20038;-77
2023/05/28 07:53:01;;;;;;;5.68;3.42;;;;;;;19.34;66.82;95095.19;5073034;28;20067;-77
2023/05/28 07:55:27;;;;;;;7.93;3.50;;;;;;;19.13;66.47;95130.16;5063428;28;20029;-77
2023/05/28 07:57:52;;;;;;;7.35;3.75;;;;;;;19.05;67.35;95101.44;5070380;28;20046;-76
2023/05/28 08:00:18;;;;;;;5.72;4.30;;;;;;;19.27;67.44;95111.06;5071919;28;20506;-77
2023/05/28 08:02:44;;;;;;;6.22;3.60;;;;;;;19.27;67.81;95119.13;5072993;28;20131;-78
2023/05/28 08:05:10;;;;;;;6.47;3.63;;;;;;;19.16;67.80;95097.25;5070397;28;20029;-76
2023/05/28 08:07:35;;;;;;;12.77;3.72;;;;;;;19.26;66.67;95110.28;5057957;28;20044;-78
2023/05/28 08:10:01;;;;;;;8.45;3.60;;;;;;;19.22;66.67;95112.03;5072199;28;20084;-77
2023/05/28 08:12:27;;;;;;;6.65;4.28;;;;;;;19.23;66.03;95097.50;5072257;28;20477;-77
2023/05/28 08:14:52;;;;;;;12.00;4.82;;;;;;;19.53;66.28;95110.88;5074561;28;20113;-77
2023/05/28 08:17:21;;;;;;;8.70;4.30;;;;;;;19.60;66.60;95111.13;5073186;28;20036;-77
2023/05/28 08:19:46;;;;;;;13.10;5.13;;;;;;;19.72;65.98;95113.06;5073304;28;20032;-77
2023/05/28 08:22:12;;;;;;;12.02;4.32;;;;;;;19.67;66.02;95097.91;5074877;28;20143;-77
2023/05/28 08:24:38;;;;;;;11.23;4.15;;;;;;;19.96;64.83;95121.19;5073120;28;20059;-77
2023/05/28 08:27:04;;;;;;;12.90;4.35;;;;;;;20.12;65.79;95130.19;5059376;28;20045;-77
2023/05/28 08:29:29;;;;;;;11.00;4.13;;;;;;;20.06;65.14;95115.38;5055910;28;20039;-77
2023/05/28 08:31:57;;;;;;;5.18;3.17;;;;;;;20.14;64.09;95127.91;5070479;28;20484;-77
2023/05/28 08:34:23;;;;;;;5.90;2.85;;;;;;;20.04;64.76;95121.09;5073380;28;20043;-78
2023/05/28 08:36:48;;;;;;;6.40;3.17;;;;;;;20.15;64.69;95126.03;5073695;28;20032;-77
2023/05/28 08:39:14;;;;;;;6.03;3.58;;;;;;;20.20;64.22;95126.59;5073976;28;20052;-78
2023/05/28 08:41:39;;;;;;;12.45;3.53;;;;;;;20.03;62.82;95106.06;5073836;28;20115;-78
2023/05/28 08:44:05;;;;;;;7.97;3.00;;;;;;;19.87;63.41;95113.19;5057901;28;20034;-77
2023/05/28 08:46:31;;;;;;;11.00;3.83;;;;;;;19.85;62.61;95096.59;5075235;28;20115;-78
2023/05/28 08:48:58;;;;;;;5.78;3.10;;;;;;;20.34;62.45;95102.06;5074010;28;20067;-78
2023/05/28 08:51:25;;;;;;;7.20;3.75;;;;;;;20.85;62.91;95118.63;5073533;28;20032;-78
2023/05/28 08:53:51;;;;;;;8.02;3.92;;;;;;;20.98;62.23;95122.91;5066501;28;20037;-77
2023/05/28 08:56:17;;;;;;;4.90;3.47;;;;;;;20.70;59.78;95125.50;5064084;28;20024;-78
2023/05/28 08:58:44;;;;;;;4.53;3.28;;;;;;;20.76;59.91;95089.91;5073226;28;20133;-78
2023/05/28 09:01:09;;;;;;;5.80;3.70;;;;;;;20.65;59.98;95091.50;5072331;28;20115;-78
2023/05/28 09:03:37;;;;;;;5.90;3.38;;;;;;;20.80;60.13;95090.00;5073574;28;20091;-78
2023/05/28 09:06:03;;;;;;;9.52;3.70;;;;;;;20.33;60.27;95052.81;5074947;28;20821;-78
2023/05/28 09:08:29;;;;;;;5.63;2.95;;;;;;;20.43;59.66;95110.81;5073455;28;20041;-78
2023/05/28 09:10:56;;;;;;;3.55;2.70;;;;;;;20.42;60.51;95122.72;5073401;28;20050;-78
2023/05/28 09:13:22;;;;;;;6.90;2.80;;;;;;;20.68;59.71;95103.50;5072260;28;20032;-78
2023/05/28 09:15:51;;;;;;;7.05;2.60;;;;;;;20.95;58.97;95110.88;5074176;28;20032;-77
2023/05/28 09:18:23;;;;;;;6.07;3.38;;;;;;;20.45;58.80;95087.00;5073847;28;20036;-78
2023/05/28 09:20:49;;;;;;;7.25;3.25;;;;;;;19.83;60.24;95044.25;5059236;28;20052;-78
2023/05/28 09:23:17;;;;;;;6.78;3.90;;;;;;;19.99;59.68;95080.91;5074002;28;20697;-78
2023/05/28 09:25:44;;;;;;;10.27;4.05;;;;;;;19.90;58.67;95057.94;5073172;28;20144;-78
2023/05/28 09:28:13;;;;;;;11.27;4.32;;;;;;;19.79;59.18;95062.94;5068744;28;20033;-77
2023/05/28 09:30:39;;;;;;;5.78;3.83;;;;;;;19.84;58.89;95075.41;5062501;28;20422;-77
2023/05/28 09:33:06;;;;;;;7.40;3.65;;;;;;;19.54;59.64;95056.72;5073674;28;20032;-77
2023/05/28 09:35:33;;;;;;;11.75;5.07;;;;;;;20.13;58.55;95114.81;5071203;28;20013;-77
2023/05/28 09:38:11;;;;;;;10.43;4.28;;;;;;;20.28;57.80;95101.47;5072918;28;20524;-78
2023/05/28 09:40:41;;;;;;;9.65;4.40;;;;;;;20.28;57.80;95123.03;5059270;28;20029;-77
2023/05/28 09:43:08;;;;;;;7.23;4.10;;;;;;;19.67;58.27;95070.22;5072947;28;20329;-78
2023/05/28 09:45:34;;;;;;;9.23;4.13;;;;;;;20.32;58.12;95129.28;5072949;28;20302;-77
2023/05/28 09:48:00;;;;;;;8.07;4.03;;;;;;;19.68;59.72;95104.88;5071971;28;20052;-77
2023/05/28 09:50:26;;;;;;;8.60;4.50;;;;;;;19.78;59.90;95098.25;5072498;28;20028;-78
2023/05/28 09:52:55;;;;;;;6.78;3.60;;;;;;;19.87;59.52;95109.72;5072764;28;20036;-77
2023/05/28 09:55:24;;;;;;;9.50;4.47;;;;;;;19.92;60.10;95098.72;5074606;28;20526;-77
2023/05/28 09:58:01;;;;;;;5.50;3.60;;;;;;;20.11;59.60;95114.34;5073297;28;20132;-77
2023/05/28 10:00:44;;;;;;;8.07;4.10;;;;;;;20.05;58.04;95076.13;5072771;28;20028;-78
2023/05/28 10:03:13;;;;;;;6.43;3.55;;;;;;;20.11;58.18;95108.97;5072492;28;20058;-77
2023/05/28 10:05:59;;;;;;;13.32;8.57;;;;;;;20.64;57.74;95129.56;5059586;28;20029;-77
2023/05/28 10:08:26;;;;;;;7.15;4.32;;;;;;;20.90;57.47;95108.41;5068010;28;20036;-77
2023/05/28 10:10:53;;;;;;;10.23;3.67;;;;;;;21.06;57.80;95109.25;5057946;28;20033;-77
2023/05/28 10:13:19;;;;;;;7.40;3.88;;;;;;;20.86;55.69;95117.50;5073455;28;20066;-78
2023/05/28 10:15:46;;;;;;;4.82;3.60;;;;;;;20.63;55.27;95133.38;5076900;28;20033;-77
2023/05/28 10:18:15;;;;;;;6.00;4.15;;;;;;;20.59;55.75;95097.47;5076292;28;20035;-77
2023/05/28 10:20:41;;;;;;;6.18;3.88;;;;;;;21.12;55.24;95126.00;5076728;28;20028;-77
2023/05/28 10:23:10;;;;;;;5.22;3.38;;;;;;;21.87;55.29;95118.88;5070118;28;20021;-77
2023/05/28 10:25:36;;;;;;;7.82;4.18;;;;;;;22.58;52.40;95112.53;5061852;28;20154;-77
2023/05/28 10:28:03;;;;;;;6.13;3.75;;;;;;;23.59;50.47;95129.81;5077207;28;20036;-77
2023/05/28 10:30:36;;;;;;;7.32;4.13;;;;;;;24.02;47.41;95124.06;5075658;28;20107;-77
2023/05/28 10:33:07;;;;;;;6.53;3.72;;;;;;;24.93;46.09;95118.63;5074823;28;20033;-77
2023/05/28 10:35:35;;;;;;;12.73;3.65;;;;;;;25.50;44.48;95113.13;5063427;28;20506;-77
2023/05/28 10:38:07;;;;;;;7.88;4.10;;;;;;;26.01;42.48;95100.53;5075602;28;20033;-77
2023/05/28 10:40:39;;;;;;;5.95;3.88;;;;;;;25.99;42.73;95083.03;5076109;28;20067;-78
2023/05/28 10:43:05;;;;;;;5.00;4.07;;;;;;;26.43;41.68;95105.59;5062318;28;20166;-78
2023/05/28 10:45:35;;;;;;;9.40;4.07;;;;;;;26.36;41.55;95067.47;5075174;28;20521;-77
2023/05/28 10:48:02;;;;;;;6.25;4.00;;;;;;;26.07;41.31;95085.47;5072802;28;20028;-78
2023/05/28 10:50:27;;;;;;;7.07;3.38;;;;;;;26.10;41.70;95092.06;5061461;28;20029;-78
2023/05/28 10:53:07;;;;;;;7.30;4.00;;;;;;;25.65;42.32;95076.88;5068361;28;20032;-78
2023/05/28 10:55:53;;;;;;;9.80;4.22;;;;;;;25.56;42.29;95100.78;5077464;28;20097;-77
2023/05/28 10:58:42;;;;;;;6.68;3.60;;;;;;;25.81;43.55;95101.09;5074244;28;20040;-78
2023/05/28 11:01:11;;;;;;;6.13;3.58;;;;;;;25.54;44.49;95089.53;5072561;28;20028;-78
2023/05/28 11:03:42;;;;;;;4.90;3.88;;;;;;;24.91;44.02;95025.97;5075566;28;20032;-77
2023/05/28 11:06:10;;;;;;;6.70;4.13;;;;;;;24.67;43.77;95064.34;5062345;28;20104;-77
2023/05/28 11:08:45;;;;;;;7.32;4.32;;;;;;;24.54;44.31;95090.09;5076065;28;20115;-77
2023/05/28 11:11:12;;;;;;;6.05;4.30;;;;;;;24.51;44.30;95083.47;5075700;28;20032;-77
2023/05/28 11:13:41;;;;;;;7.70;4.70;;;;;;;23.95;45.29;95050.03;5077124;28;20031;-77
2023/05/28 11:16:08;;;;;;;7.15;4.32;;;;;;;24.34;45.39;95073.13;5076052;28;20084;-78
2023/05/28 11:18:33;;;;;;;7.00;5.22;;;;;;;24.38;45.20;95092.94;5075216;28;20507;-77
2023/05/28 11:21:08;;;;;;;9.50;4.78;;;;;;;24.43;44.64;95065.53;5075347;28;20039;-77
2023/05/28 11:23:36;;;;;;;6.75;5.28;;;;;;;24.13;45.45;94967.09;5076591;28;20051;-78
2023/05/28 11:26:03;;;;;;;7.30;5.03;;;;;;;24.70;45.50;95066.34;5074544;28;20041;-78